sensor_id;sensor_type;location;lat;lon;timestamp;pressure;altitude;pressure_sealevel;temperature;humidity
76201;BME280;64981;52.930;9.266;2023-09-18T00:00:40;100720.63;;;18.93;76.84
76201;BME280;64981;52.930;9.266;2023-09-18T00:03:08;100718.19;;;18.91;76.92
76201;BME280;64981;52.930;9.266;2023-09-18T00:05:34;100708.69;;;18.95;76.53
76201;BME280;64981;52.930;9.266;2023-09-18T00:08:00;100708.06;;;18.93;76.61
76201;BME280;64981;52.930;9.266;2023-09-18T00:10:28;100717.22;;;18.86;76.61
76201;BME280;64981;52.930;9.266;2023-09-18T00:12:56;100715.03;;;18.69;77.47
76201;BME280;64981;52.930;9.266;2023-09-18T00:15:22;100716.44;;;18.72;76.88
76201;BME280;64981;52.930;9.266;2023-09-18T00:17:48;100713.16;;;18.76;76.85
76201;BME280;64981;52.930;9.266;2023-09-18T00:20:14;100721.19;;;18.76;76.90
76201;BME280;64981;52.930;9.266;2023-09-18T00:22:42;100716.00;;;18.75;76.56
76201;BME280;64981;52.930;9.266;2023-09-18T00:25:08;100715.00;;;18.76;76.53
76201;BME280;64981;52.930;9.266;2023-09-18T00:27:33;100694.22;;;18.71;76.62
76201;BME280;64981;52.930;9.266;2023-09-18T00:30:03;100683.50;;;18.71;76.64
76201;BME280;64981;52.930;9.266;2023-09-18T00:32:28;100688.47;;;18.68;76.95
76201;BME280;64981;52.930;9.266;2023-09-18T00:34:54;100677.72;;;18.74;76.70
76201;BME280;64981;52.930;9.266;2023-09-18T00:37:20;100680.00;;;18.71;77.03
76201;BME280;64981;52.930;9.266;2023-09-18T00:39:45;100675.91;;;18.68;77.27
76201;BME280;64981;52.930;9.266;2023-09-18T00:42:11;100667.28;;;18.66;76.95
76201;BME280;64981;52.930;9.266;2023-09-18T00:44:39;100660.44;;;18.70;76.57
76201;BME280;64981;52.930;9.266;2023-09-18T00:47:08;100659.31;;;18.60;77.16
76201;BME280;64981;52.930;9.266;2023-09-18T00:49:36;100649.44;;;18.60;77.08
76201;BME280;64981;52.930;9.266;2023-09-18T00:52:05;100647.78;;;18.59;76.91
76201;BME280;64981;52.930;9.266;2023-09-18T00:54:33;100635.31;;;18.47;77.38
76201;BME280;64981;52.930;9.266;2023-09-18T00:56:59;100627.28;;;18.47;77.05
76201;BME280;64981;52.930;9.266;2023-09-18T00:59:25;100618.25;;;18.48;76.90
76201;BME280;64981;52.930;9.266;2023-09-18T01:01:52;100613.34;;;18.45;76.97
76201;BME280;64981;52.930;9.266;2023-09-18T01:04:18;100608.41;;;18.42;77.37
76201;BME280;64981;52.930;9.266;2023-09-18T01:06:43;100598.31;;;18.44;77.23
76201;BME280;64981;52.930;9.266;2023-09-18T01:09:09;100596.84;;;18.48;77.07
76201;BME280;64981;52.930;9.266;2023-09-18T01:11:57;100604.19;;;18.52;76.69
76201;BME280;64981;52.930;9.266;2023-09-18T01:14:31;100594.31;;;18.53;76.03
76201;BME280;64981;52.930;9.266;2023-09-18T01:17:00;100588.63;;;18.43;76.68
76201;BME280;64981;52.930;9.266;2023-09-18T01:19:36;100590.09;;;18.45;76.33
76201;BME280;64981;52.930;9.266;2023-09-18T01:22:04;100574.88;;;18.39;76.39
76201;BME280;64981;52.930;9.266;2023-09-18T01:24:32;100575.16;;;18.31;76.96
76201;BME280;64981;52.930;9.266;2023-09-18T01:26:57;100573.94;;;18.27;77.03
76201;BME280;64981;52.930;9.266;2023-09-18T01:29:23;100570.81;;;18.30;76.67
76201;BME280;64981;52.930;9.266;2023-09-18T01:31:48;100556.44;;;18.31;76.85
76201;BME280;64981;52.930;9.266;2023-09-18T01:34:19;100549.63;;;18.35;76.40
76201;BME280;64981;52.930;9.266;2023-09-18T01:36:46;100546.72;;;18.37;76.35
76201;BME280;64981;52.930;9.266;2023-09-18T01:39:12;100554.75;;;18.37;76.49
76201;BME280;64981;52.930;9.266;2023-09-18T01:41:40;100555.19;;;18.34;76.62
76201;BME280;64981;52.930;9.266;2023-09-18T01:44:06;100556.22;;;18.33;76.52
76201;BME280;64981;52.930;9.266;2023-09-18T01:46:33;100547.81;;;18.29;76.26
76201;BME280;64981;52.930;9.266;2023-09-18T01:49:02;100548.03;;;18.27;76.64
76201;BME280;64981;52.930;9.266;2023-09-18T01:51:29;100543.94;;;18.25;76.44
76201;BME280;64981;52.930;9.266;2023-09-18T01:53:55;100537.56;;;18.26;76.38
76201;BME280;64981;52.930;9.266;2023-09-18T01:56:23;100529.31;;;18.27;76.59
76201;BME280;64981;52.930;9.266;2023-09-18T01:58:49;100531.34;;;18.32;76.53
76201;BME280;64981;52.930;9.266;2023-09-18T02:01:15;100525.75;;;18.34;75.95
76201;BME280;64981;52.930;9.266;2023-09-18T02:03:40;100527.31;;;18.23;76.50
76201;BME280;64981;52.930;9.266;2023-09-18T02:06:07;100532.84;;;18.21;76.77
76201;BME280;64981;52.930;9.266;2023-09-18T02:08:34;100529.00;;;18.11;76.79
76201;BME280;64981;52.930;9.266;2023-09-18T02:11:00;100523.03;;;18.15;76.38
76201;BME280;64981;52.930;9.266;2023-09-18T02:13:25;100515.84;;;18.16;76.67
76201;BME280;64981;52.930;9.266;2023-09-18T02:15:51;100522.53;;;18.25;76.19
76201;BME280;64981;52.930;9.266;2023-09-18T02:18:16;100523.84;;;18.16;76.59
76201;BME280;64981;52.930;9.266;2023-09-18T02:20:43;100515.25;;;18.14;76.67
76201;BME280;64981;52.930;9.266;2023-09-18T02:23:13;100509.47;;;18.17;76.49
76201;BME280;64981;52.930;9.266;2023-09-18T02:25:38;100510.88;;;18.19;76.47
76201;BME280;64981;52.930;9.266;2023-09-18T02:28:06;100513.53;;;18.19;76.42
76201;BME280;64981;52.930;9.266;2023-09-18T02:30:32;100517.00;;;18.26;76.18
76201;BME280;64981;52.930;9.266;2023-09-18T02:32:58;100519.22;;;18.30;75.60
76201;BME280;64981;52.930;9.266;2023-09-18T02:35:25;100516.66;;;18.16;76.38
76201;BME280;64981;52.930;9.266;2023-09-18T02:37:50;100513.53;;;18.19;76.12
76201;BME280;64981;52.930;9.266;2023-09-18T02:40:16;100514.81;;;18.17;76.60
76201;BME280;64981;52.930;9.266;2023-09-18T02:42:41;100502.06;;;18.12;76.67
76201;BME280;64981;52.930;9.266;2023-09-18T02:45:07;100497.56;;;18.13;76.34
76201;BME280;64981;52.930;9.266;2023-09-18T02:47:35;100495.03;;;18.18;76.38
76201;BME280;64981;52.930;9.266;2023-09-18T02:50:03;100492.97;;;18.20;76.77
76201;BME280;64981;52.930;9.266;2023-09-18T02:52:31;100483.09;;;18.20;76.73
76201;BME280;64981;52.930;9.266;2023-09-18T02:54:56;100481.22;;;18.21;76.67
76201;BME280;64981;52.930;9.266;2023-09-18T02:57:22;100484.69;;;18.28;76.48
76201;BME280;64981;52.930;9.266;2023-09-18T02:59:47;100474.84;;;18.22;76.78
76201;BME280;64981;52.930;9.266;2023-09-18T03:02:13;100476.75;;;18.15;76.54
76201;BME280;64981;52.930;9.266;2023-09-18T03:04:39;100479.03;;;18.11;76.92
76201;BME280;64981;52.930;9.266;2023-09-18T03:07:04;100481.91;;;18.16;76.92
76201;BME280;64981;52.930;9.266;2023-09-18T03:09:30;100478.16;;;18.17;77.12
76201;BME280;64981;52.930;9.266;2023-09-18T03:11:56;100472.81;;;18.17;76.92
76201;BME280;64981;52.930;9.266;2023-09-18T03:14:21;100464.81;;;18.17;76.70
76201;BME280;64981;52.930;9.266;2023-09-18T03:16:47;100463.34;;;18.21;76.72
76201;BME280;64981;52.930;9.266;2023-09-18T03:19:12;100461.25;;;18.23;76.64
76201;BME280;64981;52.930;9.266;2023-09-18T03:21:38;100450.16;;;18.26;76.33
76201;BME280;64981;52.930;9.266;2023-09-18T03:24:04;100449.53;;;18.24;76.52
76201;BME280;64981;52.930;9.266;2023-09-18T03:26:30;100445.59;;;18.27;76.60
76201;BME280;64981;52.930;9.266;2023-09-18T03:28:55;100440.25;;;18.27;76.37
76201;BME280;64981;52.930;9.266;2023-09-18T03:31:21;100436.78;;;18.26;76.37
76201;BME280;64981;52.930;9.266;2023-09-18T03:33:46;100433.66;;;18.30;76.44
76201;BME280;64981;52.930;9.266;2023-09-18T03:36:12;100429.13;;;18.30;76.07
76201;BME280;64981;52.930;9.266;2023-09-18T03:38:39;100426.69;;;18.28;76.29
76201;BME280;64981;52.930;9.266;2023-09-18T03:41:04;100419.25;;;18.31;76.33
76201;BME280;64981;52.930;9.266;2023-09-18T03:43:30;100413.91;;;18.31;76.04
76201;BME280;64981;52.930;9.266;2023-09-18T03:46:04;100403.19;;;18.31;76.43
76201;BME280;64981;52.930;9.266;2023-09-18T03:48:30;100396.59;;;18.33;76.23
76201;BME280;64981;52.930;9.266;2023-09-18T03:51:01;100394.81;;;18.27;76.41
76201;BME280;64981;52.930;9.266;2023-09-18T03:53:27;100384.53;;;18.24;76.67
76201;BME280;64981;52.930;9.266;2023-09-18T03:55:52;100377.53;;;18.30;76.31
76201;BME280;64981;52.930;9.266;2023-09-18T03:58:18;100359.59;;;18.30;76.26
76201;BME280;64981;52.930;9.266;2023-09-18T04:00:45;100356.28;;;18.35;75.86
76201;BME280;64981;52.930;9.266;2023-09-18T04:03:11;100364.94;;;18.30;76.11
76201;BME280;64981;52.930;9.266;2023-09-18T04:05:36;100358.88;;;18.23;76.04
76201;BME280;64981;52.930;9.266;2023-09-18T04:08:02;100337.25;;;18.24;76.06
76201;BME280;64981;52.930;9.266;2023-09-18T04:10:28;100330.88;;;18.25;75.97
76201;BME280;64981;52.930;9.266;2023-09-18T04:12:53;100338.06;;;18.25;75.87
76201;BME280;64981;52.930;9.266;2023-09-18T04:15:19;100321.38;;;18.30;75.69
76201;BME280;64981;52.930;9.266;2023-09-18T04:17:45;100322.47;;;18.40;75.29
76201;BME280;64981;52.930;9.266;2023-09-18T04:20:11;100310.38;;;18.38;75.32
76201;BME280;64981;52.930;9.266;2023-09-18T04:22:43;100307.47;;;18.39;75.39
76201;BME280;64981;52.930;9.266;2023-09-18T04:25:10;100303.63;;;18.35;75.36
76201;BME280;64981;52.930;9.266;2023-09-18T04:27:36;100303.81;;;18.34;75.37
76201;BME280;64981;52.930;9.266;2023-09-18T04:30:02;100291.06;;;18.36;75.42
76201;BME280;64981;52.930;9.266;2023-09-18T04:32:28;100283.41;;;18.39;75.32
76201;BME280;64981;52.930;9.266;2023-09-18T04:34:54;100285.09;;;18.34;75.28
76201;BME280;64981;52.930;9.266;2023-09-18T04:37:20;100277.69;;;18.36;75.16
76201;BME280;64981;52.930;9.266;2023-09-18T04:39:46;100278.88;;;18.40;75.00
76201;BME280;64981;52.930;9.266;2023-09-18T04:42:11;100279.25;;;18.43;74.90
76201;BME280;64981;52.930;9.266;2023-09-18T04:44:37;100271.38;;;18.30;75.21
76201;BME280;64981;52.930;9.266;2023-09-18T04:47:02;100260.22;;;18.33;75.07
76201;BME280;64981;52.930;9.266;2023-09-18T04:49:28;100255.88;;;18.39;75.16
76201;BME280;64981;52.930;9.266;2023-09-18T04:51:55;100236.25;;;18.45;74.81
76201;BME280;64981;52.930;9.266;2023-09-18T04:54:20;100233.78;;;18.43;74.93
76201;BME280;64981;52.930;9.266;2023-09-18T04:56:46;100231.59;;;18.52;74.30
76201;BME280;64981;52.930;9.266;2023-09-18T04:59:12;100224.81;;;18.38;74.59
76201;BME280;64981;52.930;9.266;2023-09-18T05:01:37;100214.06;;;18.56;74.35
76201;BME280;64981;52.930;9.266;2023-09-18T05:04:03;100209.44;;;18.63;74.07
76201;BME280;64981;52.930;9.266;2023-09-18T05:06:29;100202.69;;;18.60;74.33
76201;BME280;64981;52.930;9.266;2023-09-18T05:08:54;100189.72;;;18.46;74.45
76201;BME280;64981;52.930;9.266;2023-09-18T05:11:20;100188.22;;;18.50;74.52
76201;BME280;64981;52.930;9.266;2023-09-18T05:13:46;100192.66;;;18.56;74.68
76201;BME280;64981;52.930;9.266;2023-09-18T05:16:12;100181.06;;;18.62;74.17
76201;BME280;64981;52.930;9.266;2023-09-18T05:18:37;100174.69;;;18.63;74.23
76201;BME280;64981;52.930;9.266;2023-09-18T05:21:03;100177.25;;;18.69;73.98
76201;BME280;64981;52.930;9.266;2023-09-18T05:23:30;100180.03;;;18.74;74.06
76201;BME280;64981;52.930;9.266;2023-09-18T05:25:56;100168.59;;;18.86;73.36
76201;BME280;64981;52.930;9.266;2023-09-18T05:28:21;100170.47;;;18.85;73.45
76201;BME280;64981;52.930;9.266;2023-09-18T05:30:47;100166.41;;;19.06;72.69
76201;BME280;64981;52.930;9.266;2023-09-18T05:33:12;100160.13;;;19.00;72.96
76201;BME280;64981;52.930;9.266;2023-09-18T05:35:41;100153.38;;;19.09;72.90
76201;BME280;64981;52.930;9.266;2023-09-18T05:38:09;100152.69;;;19.14;72.38
76201;BME280;64981;52.930;9.266;2023-09-18T05:40:36;100152.13;;;19.23;72.32
76201;BME280;64981;52.930;9.266;2023-09-18T05:43:02;100148.72;;;19.28;72.07
76201;BME280;64981;52.930;9.266;2023-09-18T05:45:28;100154.44;;;19.31;71.71
76201;BME280;64981;52.930;9.266;2023-09-18T05:47:54;100153.41;;;19.32;71.59
76201;BME280;64981;52.930;9.266;2023-09-18T05:50:27;100149.66;;;19.45;71.29
76201;BME280;64981;52.930;9.266;2023-09-18T05:52:55;100148.94;;;19.50;71.58
76201;BME280;64981;52.930;9.266;2023-09-18T05:55:25;100175.88;;;19.66;70.77
76201;BME280;64981;52.930;9.266;2023-09-18T05:57:51;100161.91;;;19.64;70.49
76201;BME280;64981;52.930;9.266;2023-09-18T06:00:16;100155.47;;;19.54;71.33
76201;BME280;64981;52.930;9.266;2023-09-18T06:02:43;100164.56;;;19.76;70.47
76201;BME280;64981;52.930;9.266;2023-09-18T06:05:09;100163.97;;;19.74;70.39
76201;BME280;64981;52.930;9.266;2023-09-18T06:07:36;100146.72;;;19.58;71.07
76201;BME280;64981;52.930;9.266;2023-09-18T06:10:02;100156.56;;;19.64;71.06
76201;BME280;64981;52.930;9.266;2023-09-18T06:12:28;100150.13;;;19.54;71.55
76201;BME280;64981;52.930;9.266;2023-09-18T06:14:54;100150.34;;;19.52;71.38
76201;BME280;64981;52.930;9.266;2023-09-18T06:17:20;100147.56;;;19.70;70.45
76201;BME280;64981;52.930;9.266;2023-09-18T06:19:45;100146.53;;;19.60;70.62
76201;BME280;64981;52.930;9.266;2023-09-18T06:22:11;100150.00;;;19.72;70.54
76201;BME280;64981;52.930;9.266;2023-09-18T06:24:37;100136.25;;;19.80;70.05
76201;BME280;64981;52.930;9.266;2023-09-18T06:27:04;100130.97;;;19.85;69.62
76201;BME280;64981;52.930;9.266;2023-09-18T06:29:31;100127.34;;;19.91;69.84
76201;BME280;64981;52.930;9.266;2023-09-18T06:31:57;100125.06;;;19.83;70.17
76201;BME280;64981;52.930;9.266;2023-09-18T06:34:22;100121.59;;;19.99;69.36
76201;BME280;64981;52.930;9.266;2023-09-18T06:36:48;100119.91;;;19.81;69.85
76201;BME280;64981;52.930;9.266;2023-09-18T06:39:14;100096.06;;;19.80;69.94
76201;BME280;64981;52.930;9.266;2023-09-18T06:41:40;100090.44;;;19.81;70.07
76201;BME280;64981;52.930;9.266;2023-09-18T06:44:06;100098.69;;;19.92;69.88
76201;BME280;64981;52.930;9.266;2023-09-18T06:46:32;100105.09;;;19.91;69.77
76201;BME280;64981;52.930;9.266;2023-09-18T06:48:58;100108.34;;;19.93;69.74
76201;BME280;64981;52.930;9.266;2023-09-18T06:51:27;100102.19;;;20.37;68.66
76201;BME280;64981;52.930;9.266;2023-09-18T06:53:53;100081.97;;;20.29;68.40
76201;BME280;64981;52.930;9.266;2023-09-18T06:56:20;100095.91;;;20.43;68.03
76201;BME280;64981;52.930;9.266;2023-09-18T06:58:45;100104.25;;;20.30;68.26
76201;BME280;64981;52.930;9.266;2023-09-18T07:01:13;100102.84;;;19.99;69.58
76201;BME280;64981;52.930;9.266;2023-09-18T07:03:40;100116.88;;;20.18;69.13
76201;BME280;64981;52.930;9.266;2023-09-18T07:06:06;100115.34;;;19.94;69.75
76201;BME280;64981;52.930;9.266;2023-09-18T07:08:32;100103.44;;;20.01;69.78
76201;BME280;64981;52.930;9.266;2023-09-18T07:10:58;100111.91;;;20.10;69.73
76201;BME280;64981;52.930;9.266;2023-09-18T07:13:24;100110.88;;;19.99;70.39
76201;BME280;64981;52.930;9.266;2023-09-18T07:15:50;100103.78;;;19.93;70.56
76201;BME280;64981;52.930;9.266;2023-09-18T07:18:16;100088.19;;;19.90;70.49
76201;BME280;64981;52.930;9.266;2023-09-18T07:20:43;100102.66;;;20.17;70.29
76201;BME280;64981;52.930;9.266;2023-09-18T07:23:09;100113.31;;;19.72;71.93
76201;BME280;64981;52.930;9.266;2023-09-18T07:25:35;100094.19;;;19.46;72.79
76201;BME280;64981;52.930;9.266;2023-09-18T07:28:06;100098.56;;;19.86;71.77
76201;BME280;64981;52.930;9.266;2023-09-18T07:30:33;100104.22;;;19.50;73.55
76201;BME280;64981;52.930;9.266;2023-09-18T07:32:59;100105.97;;;19.68;72.85
76201;BME280;64981;52.930;9.266;2023-09-18T07:35:25;100112.81;;;19.75;72.85
76201;BME280;64981;52.930;9.266;2023-09-18T07:37:51;100114.97;;;19.39;74.11
76201;BME280;64981;52.930;9.266;2023-09-18T07:40:17;100123.34;;;19.30;74.77
76201;BME280;64981;52.930;9.266;2023-09-18T07:42:42;100119.16;;;19.23;75.21
76201;BME280;64981;52.930;9.266;2023-09-18T07:45:11;100111.38;;;19.10;75.95
76201;BME280;64981;52.930;9.266;2023-09-18T07:47:37;100112.66;;;19.07;75.69
76201;BME280;64981;52.930;9.266;2023-09-18T07:50:03;100121.59;;;19.24;75.11
76201;BME280;64981;52.930;9.266;2023-09-18T07:52:29;100119.16;;;19.23;75.19
76201;BME280;64981;52.930;9.266;2023-09-18T07:54:55;100122.53;;;19.30;74.91
76201;BME280;64981;52.930;9.266;2023-09-18T07:57:20;100115.31;;;19.30;75.16
76201;BME280;64981;52.930;9.266;2023-09-18T07:59:48;100127.88;;;19.30;75.23
76201;BME280;64981;52.930;9.266;2023-09-18T08:02:14;100115.56;;;19.29;75.45
76201;BME280;64981;52.930;9.266;2023-09-18T08:04:40;100124.72;;;19.56;74.22
76201;BME280;64981;52.930;9.266;2023-09-18T08:07:05;100125.56;;;19.45;74.89
76201;BME280;64981;52.930;9.266;2023-09-18T08:09:32;100138.13;;;19.45;74.72
76201;BME280;64981;52.930;9.266;2023-09-18T08:12:02;100141.88;;;19.32;75.39
76201;BME280;64981;52.930;9.266;2023-09-18T08:14:28;100139.31;;;19.49;75.16
76201;BME280;64981;52.930;9.266;2023-09-18T08:16:58;100125.66;;;19.50;74.98
76201;BME280;64981;52.930;9.266;2023-09-18T08:19:24;100126.13;;;19.59;74.38
76201;BME280;64981;52.930;9.266;2023-09-18T08:21:53;100129.97;;;19.51;75.11
76201;BME280;64981;52.930;9.266;2023-09-18T08:24:20;100136.00;;;19.81;74.25
76201;BME280;64981;52.930;9.266;2023-09-18T08:26:46;100136.56;;;19.83;74.08
76201;BME280;64981;52.930;9.266;2023-09-18T08:29:12;100135.31;;;19.74;74.43
76201;BME280;64981;52.930;9.266;2023-09-18T08:31:37;100134.38;;;19.69;74.56
76201;BME280;64981;52.930;9.266;2023-09-18T08:34:03;100146.44;;;19.95;73.80
76201;BME280;64981;52.930;9.266;2023-09-18T08:36:29;100153.63;;;20.17;73.17
76201;BME280;64981;52.930;9.266;2023-09-18T08:38:56;100143.69;;;20.18;72.86
76201;BME280;64981;52.930;9.266;2023-09-18T08:41:23;100146.97;;;20.36;72.62
76201;BME280;64981;52.930;9.266;2023-09-18T08:43:59;100146.50;;;20.51;72.00
76201;BME280;64981;52.930;9.266;2023-09-18T08:46:25;100152.59;;;20.63;71.92
76201;BME280;64981;52.930;9.266;2023-09-18T08:48:51;100140.00;;;20.64;72.38
76201;BME280;64981;52.930;9.266;2023-09-18T08:51:18;100147.56;;;20.67;72.20
76201;BME280;64981;52.930;9.266;2023-09-18T08:53:44;100141.38;;;21.00;71.20
76201;BME280;64981;52.930;9.266;2023-09-18T08:56:12;100113.56;;;21.06;71.40
76201;BME280;64981;52.930;9.266;2023-09-18T08:58:40;100118.88;;;21.01;71.51
76201;BME280;64981;52.930;9.266;2023-09-18T09:01:09;100105.94;;;20.98;71.70
76201;BME280;64981;52.930;9.266;2023-09-18T09:03:40;100117.66;;;20.91;71.49
76201;BME280;64981;52.930;9.266;2023-09-18T09:06:08;100111.28;;;21.31;70.32
76201;BME280;64981;52.930;9.266;2023-09-18T09:08:35;100109.88;;;21.45;69.96
76201;BME280;64981;52.930;9.266;2023-09-18T09:11:02;100115.25;;;21.45;70.28
76201;BME280;64981;52.930;9.266;2023-09-18T09:13:28;100120.03;;;21.43;70.05
76201;BME280;64981;52.930;9.266;2023-09-18T09:15:56;100104.63;;;21.33;70.55
76201;BME280;64981;52.930;9.266;2023-09-18T09:18:24;100110.06;;;21.60;69.95
76201;BME280;64981;52.930;9.266;2023-09-18T09:21:00;100107.44;;;21.65;69.43
76201;BME280;64981;52.930;9.266;2023-09-18T09:23:28;100092.88;;;21.61;70.28
76201;BME280;64981;52.930;9.266;2023-09-18T09:26:00;100096.94;;;21.85;69.49
76201;BME280;64981;52.930;9.266;2023-09-18T09:28:37;100094.75;;;21.82;70.05
76201;BME280;64981;52.930;9.266;2023-09-18T09:31:03;100100.59;;;21.96;67.58
76201;BME280;64981;52.930;9.266;2023-09-18T09:33:29;100092.31;;;22.03;67.05
76201;BME280;64981;52.930;9.266;2023-09-18T09:35:56;100093.44;;;22.07;66.88
76201;BME280;64981;52.930;9.266;2023-09-18T09:38:29;100098.66;;;22.18;66.47
76201;BME280;64981;52.930;9.266;2023-09-18T09:40:57;100105.47;;;22.26;65.63
76201;BME280;64981;52.930;9.266;2023-09-18T09:43:25;100115.91;;;22.22;65.62
76201;BME280;64981;52.930;9.266;2023-09-18T09:46:00;100117.66;;;22.33;65.82
76201;BME280;64981;52.930;9.266;2023-09-18T09:48:26;100124.41;;;22.36;65.07
76201;BME280;64981;52.930;9.266;2023-09-18T09:50:52;100129.19;;;22.56;64.57
76201;BME280;64981;52.930;9.266;2023-09-18T09:53:43;100127.16;;;22.68;64.13
76201;BME280;64981;52.930;9.266;2023-09-18T09:56:09;100118.63;;;22.49;64.38
76201;BME280;64981;52.930;9.266;2023-09-18T09:58:35;100104.69;;;22.57;64.44
76201;BME280;64981;52.930;9.266;2023-09-18T10:01:03;100108.63;;;22.71;63.73
76201;BME280;64981;52.930;9.266;2023-09-18T10:03:36;100118.78;;;22.64;64.48
76201;BME280;64981;52.930;9.266;2023-09-18T10:06:05;100122.34;;;22.75;63.92
76201;BME280;64981;52.930;9.266;2023-09-18T10:08:32;100126.22;;;22.84;63.53
76201;BME280;64981;52.930;9.266;2023-09-18T10:11:05;100135.47;;;22.66;63.47
76201;BME280;64981;52.930;9.266;2023-09-18T10:13:41;100139.94;;;22.82;63.76
76201;BME280;64981;52.930;9.266;2023-09-18T10:16:11;100137.78;;;22.84;63.18
76201;BME280;64981;52.930;9.266;2023-09-18T10:21:30;100137.25;;;22.82;63.36
76201;BME280;64981;52.930;9.266;2023-09-18T10:24:12;100139.91;;;22.77;63.42
76201;BME280;64981;52.930;9.266;2023-09-18T10:26:57;100134.38;;;22.94;62.79
76201;BME280;64981;52.930;9.266;2023-09-18T10:29:25;100137.94;;;22.99;63.12
76201;BME280;64981;52.930;9.266;2023-09-18T10:31:52;100148.94;;;22.98;62.37
76201;BME280;64981;52.930;9.266;2023-09-18T10:34:19;100148.19;;;23.02;61.98
76201;BME280;64981;52.930;9.266;2023-09-18T10:36:50;100151.44;;;23.10;62.60
76201;BME280;64981;52.930;9.266;2023-09-18T10:39:17;100169.03;;;23.17;61.86
76201;BME280;64981;52.930;9.266;2023-09-18T10:41:53;100168.91;;;23.02;62.51
76201;BME280;64981;52.930;9.266;2023-09-18T10:44:19;100160.53;;;22.98;61.76
76201;BME280;64981;52.930;9.266;2023-09-18T10:46:47;100169.53;;;22.77;62.31
76201;BME280;64981;52.930;9.266;2023-09-18T10:49:14;100161.78;;;22.86;62.59
76201;BME280;64981;52.930;9.266;2023-09-18T10:51:42;100167.88;;;22.76;63.03
76201;BME280;64981;52.930;9.266;2023-09-18T10:54:09;100164.22;;;22.61;63.17
76201;BME280;64981;52.930;9.266;2023-09-18T10:56:35;100166.06;;;22.55;63.98
76201;BME280;64981;52.930;9.266;2023-09-18T10:59:06;100171.09;;;22.73;63.05
76201;BME280;64981;52.930;9.266;2023-09-18T11:01:34;100173.41;;;22.38;64.09
76201;BME280;64981;52.930;9.266;2023-09-18T11:04:04;100171.22;;;22.35;64.05
76201;BME280;64981;52.930;9.266;2023-09-18T11:07:00;100155.53;;;22.54;63.71
76201;BME280;64981;52.930;9.266;2023-09-18T11:09:30;100159.34;;;22.58;63.61
76201;BME280;64981;52.930;9.266;2023-09-18T11:12:04;100164.72;;;22.58;63.40
76201;BME280;64981;52.930;9.266;2023-09-18T11:14:42;100169.34;;;22.62;62.90
76201;BME280;64981;52.930;9.266;2023-09-18T11:20:03;100178.34;;;22.46;63.86
76201;BME280;64981;52.930;9.266;2023-09-18T11:22:36;100182.19;;;22.55;63.73
76201;BME280;64981;52.930;9.266;2023-09-18T11:27:54;100187.22;;;22.68;63.02
76201;BME280;64981;52.930;9.266;2023-09-18T11:30:21;100184.34;;;22.80;62.48
76201;BME280;64981;52.930;9.266;2023-09-18T11:32:47;100171.53;;;22.65;63.34
76201;BME280;64981;52.930;9.266;2023-09-18T11:35:13;100167.72;;;22.88;62.91
76201;BME280;64981;52.930;9.266;2023-09-18T11:37:42;100150.72;;;22.87;63.06
76201;BME280;64981;52.930;9.266;2023-09-18T11:40:28;100167.47;;;22.89;62.71
76201;BME280;64981;52.930;9.266;2023-09-18T11:45:42;100176.22;;;23.38;60.92
76201;BME280;64981;52.930;9.266;2023-09-18T11:48:09;100182.41;;;23.39;60.93
76201;BME280;64981;52.930;9.266;2023-09-18T11:50:41;100183.13;;;23.29;61.20
76201;BME280;64981;52.930;9.266;2023-09-18T11:53:08;100182.41;;;23.34;60.77
76201;BME280;64981;52.930;9.266;2023-09-18T11:55:34;100181.97;;;23.15;61.46
76201;BME280;64981;52.930;9.266;2023-09-18T11:58:00;100191.09;;;23.14;61.72
76201;BME280;64981;52.930;9.266;2023-09-18T12:00:28;100180.03;;;23.11;62.25
76201;BME280;64981;52.930;9.266;2023-09-18T12:02:55;100177.03;;;23.07;61.71
76201;BME280;64981;52.930;9.266;2023-09-18T12:05:21;100172.13;;;22.99;61.97
76201;BME280;64981;52.930;9.266;2023-09-18T12:07:52;100163.25;;;23.03;61.88
76201;BME280;64981;52.930;9.266;2023-09-18T12:10:19;100172.44;;;23.02;61.89
76201;BME280;64981;52.930;9.266;2023-09-18T12:12:47;100183.88;;;22.88;62.39
76201;BME280;64981;52.930;9.266;2023-09-18T12:15:14;100175.59;;;22.94;62.01
76201;BME280;64981;52.930;9.266;2023-09-18T12:17:41;100189.56;;;22.91;62.05
76201;BME280;64981;52.930;9.266;2023-09-18T12:20:07;100174.81;;;22.99;61.40
76201;BME280;64981;52.930;9.266;2023-09-18T12:22:32;100172.47;;;23.08;61.68
76201;BME280;64981;52.930;9.266;2023-09-18T12:25:11;100183.22;;;23.02;61.74
76201;BME280;64981;52.930;9.266;2023-09-18T12:27:37;100179.25;;;23.15;61.47
76201;BME280;64981;52.930;9.266;2023-09-18T12:30:04;100183.38;;;23.28;61.77
76201;BME280;64981;52.930;9.266;2023-09-18T12:32:30;100185.38;;;23.06;62.02
76201;BME280;64981;52.930;9.266;2023-09-18T12:34:58;100174.59;;;23.06;61.42
76201;BME280;64981;52.930;9.266;2023-09-18T12:37:24;100189.53;;;23.18;60.56
76201;BME280;64981;52.930;9.266;2023-09-18T12:39:50;100179.94;;;23.32;60.77
76201;BME280;64981;52.930;9.266;2023-09-18T12:42:18;100187.44;;;23.30;61.08
76201;BME280;64981;52.930;9.266;2023-09-18T12:44:47;100180.41;;;23.24;60.89
76201;BME280;64981;52.930;9.266;2023-09-18T12:47:14;100178.69;;;23.50;60.39
76201;BME280;64981;52.930;9.266;2023-09-18T12:49:40;100181.06;;;23.36;60.22
76201;BME280;64981;52.930;9.266;2023-09-18T12:52:06;100166.72;;;23.31;60.31
76201;BME280;64981;52.930;9.266;2023-09-18T12:54:37;100176.91;;;23.24;60.94
76201;BME280;64981;52.930;9.266;2023-09-18T12:57:05;100184.75;;;23.30;59.67
76201;BME280;64981;52.930;9.266;2023-09-18T12:59:32;100176.50;;;23.10;59.98
76201;BME280;64981;52.930;9.266;2023-09-18T13:01:58;100173.78;;;23.05;60.06